createdAt,value
2023-02-20T00:02:05.607Z,3.53
2023-02-20T00:04:40.813Z,4.00
2023-02-20T00:07:15.331Z,3.90
2023-02-20T00:09:51.422Z,4.20
2023-02-20T00:12:26.303Z,3.78
2023-02-20T00:15:01.279Z,3.75
2023-02-20T00:17:35.680Z,3.78
2023-02-20T00:20:10.523Z,3.85
2023-02-20T00:22:44.903Z,4.00
2023-02-20T00:25:22.240Z,4.05
2023-02-20T00:27:57.240Z,4.10
2023-02-20T00:30:31.648Z,4.50
2023-02-20T00:33:06.090Z,4.20
2023-02-20T00:35:41.313Z,4.00
2023-02-20T00:38:15.839Z,4.20
2023-02-20T00:40:52.197Z,3.90
2023-02-20T00:43:27.663Z,3.90
2023-02-20T00:46:02.697Z,3.50
2023-02-20T00:48:37.118Z,3.20
2023-02-20T00:51:29.659Z,2.70
2023-02-20T00:54:04.404Z,2.92
2023-02-20T00:56:41.544Z,2.60
2023-02-20T00:59:16.727Z,3.00
2023-02-20T01:01:51.218Z,2.58
2023-02-20T01:04:26.800Z,2.70
2023-02-20T01:07:02.052Z,2.38
2023-02-20T01:09:36.326Z,2.40
2023-02-20T01:12:12.457Z,2.30
2023-02-20T01:14:47.222Z,2.40
2023-02-20T01:17:21.765Z,2.25
2023-02-20T01:19:57.543Z,1.80
2023-02-20T01:22:31.718Z,2.10
2023-02-20T01:25:05.921Z,1.80
2023-02-20T01:27:42.917Z,1.70
2023-02-20T01:30:17.802Z,1.77
2023-02-20T01:32:52.424Z,1.60
2023-02-20T01:35:26.839Z,1.30
2023-02-20T01:38:02.926Z,1.50
2023-02-20T01:40:37.600Z,1.70
2023-02-20T01:43:16.109Z,1.30
2023-02-20T01:45:51.076Z,1.27
2023-02-20T01:48:27.839Z,1.48
2023-02-20T01:51:04.217Z,1.50
2023-02-20T01:53:39.070Z,1.30
2023-02-20T01:56:18.034Z,1.05
2023-02-20T01:58:56.102Z,1.10
2023-02-20T02:01:31.146Z,1.30
2023-02-20T02:04:06.815Z,1.08
2023-02-20T02:06:43.700Z,1.30
2023-02-20T02:09:23.318Z,1.33
2023-02-20T02:11:57.955Z,1.30
2023-02-20T02:14:34.548Z,1.05
2023-02-20T02:17:26.838Z,1.20
2023-02-20T02:20:15.901Z,1.13
2023-02-20T02:23:00.089Z,1.38
2023-02-20T02:25:38.544Z,1.40
2023-02-20T02:28:30.425Z,1.27
2023-02-20T02:31:25.730Z,1.40
2023-02-20T02:34:20.339Z,1.60
2023-02-20T02:37:06.344Z,2.03
2023-02-20T02:39:44.011Z,1.45
2023-02-20T02:42:22.640Z,1.58
2023-02-20T02:45:03.491Z,1.33
2023-02-20T02:47:40.592Z,1.40
2023-02-20T02:50:18.097Z,1.40
2023-02-20T02:52:56.472Z,1.40
2023-02-20T02:55:31.502Z,1.50
2023-02-20T02:58:05.956Z,1.50
2023-02-20T03:00:42.896Z,1.30
2023-02-20T03:03:18.962Z,1.70
2023-02-20T03:05:54.536Z,1.50
2023-02-20T03:08:34.759Z,1.75
2023-02-20T03:11:11.073Z,1.80
2023-02-20T03:14:04.820Z,1.40
2023-02-20T03:16:47.162Z,1.60
2023-02-20T03:19:22.153Z,1.85
2023-02-20T03:21:57.974Z,1.60
2023-02-20T03:24:57.528Z,1.50
2023-02-20T03:27:41.547Z,1.88
2023-02-20T03:30:20.191Z,1.70
2023-02-20T03:33:14.894Z,2.00
2023-02-20T03:36:05.992Z,1.92
2023-02-20T03:38:58.664Z,1.80
2023-02-20T03:41:53.083Z,1.80
2023-02-20T03:44:28.298Z,2.20
2023-02-20T03:47:04.483Z,1.90
2023-02-20T03:49:41.078Z,1.92
2023-02-20T03:52:18.283Z,2.33
2023-02-20T03:54:53.278Z,1.67
2023-02-20T03:57:32.710Z,1.60
2023-02-20T04:00:09.228Z,1.50
2023-02-20T04:02:53.253Z,1.48
2023-02-20T04:05:31.345Z,1.70
2023-02-20T04:08:07.788Z,1.65
2023-02-20T04:10:45.660Z,1.25
2023-02-20T04:13:23.165Z,1.33
2023-02-20T04:15:58.983Z,1.70
2023-02-20T04:18:34.663Z,1.40
2023-02-20T04:21:13.914Z,1.50
2023-02-20T04:23:50.408Z,1.58
2023-02-20T04:26:27.616Z,1.40
2023-02-20T04:29:04.802Z,1.60
2023-02-20T04:31:39.783Z,1.38
2023-02-20T04:34:14.804Z,1.52
2023-02-20T04:36:49.648Z,1.50
2023-02-20T04:39:25.490Z,1.42
2023-02-20T04:42:00.334Z,1.65
2023-02-20T04:44:36.914Z,1.60
2023-02-20T04:47:22.129Z,1.52
2023-02-20T04:49:56.934Z,1.48
2023-02-20T04:52:32.799Z,1.42
2023-02-20T04:55:08.836Z,1.70
2023-02-20T04:57:43.988Z,1.77
2023-02-20T05:00:24.338Z,1.52
2023-02-20T05:02:59.988Z,1.67
2023-02-20T05:05:34.610Z,1.35
2023-02-20T05:08:10.299Z,1.83
2023-02-20T05:10:45.425Z,1.92
2023-02-20T05:13:20.578Z,2.10
2023-02-20T05:15:57.202Z,1.98
2023-02-20T05:18:33.506Z,2.17
2023-02-20T05:21:24.570Z,2.38
2023-02-20T05:23:59.209Z,2.30
2023-02-20T05:26:33.892Z,2.42
2023-02-20T05:29:08.569Z,2.47
2023-02-20T05:31:45.439Z,2.15
2023-02-20T05:34:23.185Z,2.30
2023-02-20T05:36:59.705Z,2.15
2023-02-20T05:39:34.871Z,2.40
2023-02-20T05:42:11.681Z,2.10
2023-02-20T05:44:47.075Z,2.65
2023-02-20T05:47:25.170Z,2.70
2023-02-20T05:50:01.001Z,2.40
2023-02-20T05:52:36.805Z,2.33
2023-02-20T05:55:12.301Z,2.92
2023-02-20T05:57:47.552Z,2.70
2023-02-20T06:00:23.071Z,2.13
2023-02-20T06:03:00.543Z,2.38
2023-02-20T06:05:36.092Z,2.90
2023-02-20T06:08:11.555Z,3.10
2023-02-20T06:10:46.662Z,2.58
2023-02-20T06:13:22.258Z,2.78
2023-02-20T06:15:57.693Z,3.05
2023-02-20T06:18:35.066Z,2.47
2023-02-20T06:21:13.021Z,2.92
2023-02-20T06:23:53.434Z,2.80
2023-02-20T06:26:29.199Z,2.58
2023-02-20T06:29:04.377Z,2.70
2023-02-20T06:31:39.482Z,3.25
2023-02-20T06:34:17.635Z,2.60
2023-02-20T06:36:53.691Z,2.75
2023-02-20T06:39:28.654Z,2.72
2023-02-20T06:42:03.960Z,3.10
2023-02-20T06:44:39.774Z,2.55
2023-02-20T06:47:16.014Z,3.03
2023-02-20T06:49:53.681Z,3.22
2023-02-20T06:52:29.629Z,3.10
2023-02-20T06:55:05.433Z,2.60
2023-02-20T06:57:41.016Z,2.83
2023-02-20T07:00:17.238Z,2.88
2023-02-20T07:02:52.410Z,2.85
2023-02-20T07:05:31.288Z,3.00
2023-02-20T07:08:07.452Z,2.80
2023-02-20T07:10:42.599Z,3.30
2023-02-20T07:13:18.131Z,2.70
2023-02-20T07:15:54.341Z,3.03
2023-02-20T07:18:30.440Z,3.20
2023-02-20T07:21:07.860Z,3.55
2023-02-20T07:23:43.699Z,3.65
2023-02-20T07:26:25.618Z,3.20
2023-02-20T07:29:02.815Z,3.85
2023-02-20T07:31:38.177Z,3.08
2023-02-20T07:34:13.409Z,3.78
2023-02-20T07:36:52.297Z,3.55
2023-02-20T07:39:28.221Z,3.25
2023-02-20T07:42:03.180Z,3.17
2023-02-20T07:44:56.776Z,3.33
2023-02-20T07:47:32.912Z,3.28
2023-02-20T07:50:12.239Z,3.13
2023-02-20T07:52:49.900Z,3.20
2023-02-20T07:55:25.959Z,3.80
2023-02-20T07:58:01.678Z,3.42
2023-02-20T08:00:37.272Z,3.60
2023-02-20T08:03:12.491Z,3.33
2023-02-20T08:05:49.936Z,3.50
2023-02-20T08:08:28.570Z,3.55
2023-02-20T08:11:09.490Z,3.22
2023-02-20T08:13:46.471Z,3.42
2023-02-20T08:16:21.938Z,3.22
2023-02-20T08:18:58.220Z,4.00
2023-02-20T08:21:34.393Z,4.03
2023-02-20T08:24:16.947Z,3.03
2023-02-20T08:26:53.196Z,3.72
2023-02-20T08:29:29.308Z,3.92
2023-02-20T08:32:05.010Z,3.67
2023-02-20T08:34:41.031Z,3.45
2023-02-20T08:37:16.695Z,3.78
2023-02-20T08:39:54.199Z,3.92
2023-02-20T08:42:30.384Z,3.90
2023-02-20T08:45:06.056Z,3.60
2023-02-20T08:47:42.609Z,3.95
2023-02-20T08:50:19.555Z,3.92
2023-02-20T08:52:55.637Z,3.70
2023-02-20T08:55:33.005Z,3.30
2023-02-20T08:58:08.981Z,4.22
2023-02-20T09:00:46.357Z,4.93
2023-02-20T09:03:22.248Z,4.00
2023-02-20T09:05:57.578Z,3.95
2023-02-20T09:08:33.642Z,3.95
2023-02-20T09:11:12.737Z,3.67
2023-02-20T09:13:50.412Z,3.70
2023-02-20T09:16:27.184Z,3.40
2023-02-20T09:19:02.781Z,3.35
2023-02-20T09:21:38.521Z,4.15
2023-02-20T09:24:14.264Z,3.60
2023-02-20T09:26:51.256Z,4.18
2023-02-20T09:29:26.974Z,3.55
2023-02-20T09:32:02.894Z,4.45
2023-02-20T09:34:41.242Z,3.65
2023-02-20T09:37:16.683Z,3.80
2023-02-20T09:39:52.280Z,4.00
2023-02-20T09:42:44.209Z,3.83
2023-02-20T09:45:23.611Z,4.55
2023-02-20T09:48:15.471Z,4.72
2023-02-20T09:50:55.299Z,3.72
2023-02-20T09:54:11.820Z,4.10
2023-02-20T09:56:50.049Z,3.92
2023-02-20T09:59:31.483Z,3.38
2023-02-20T10:02:48.644Z,3.63
2023-02-20T10:05:30.450Z,4.00
2023-02-20T10:08:10.399Z,4.07
2023-02-20T10:10:45.911Z,3.88
2023-02-20T10:13:53.787Z,4.07
2023-02-20T10:16:44.459Z,3.83
2023-02-20T10:19:29.590Z,3.78
2023-02-20T10:22:13.021Z,3.83
2023-02-20T10:25:07.705Z,4.20
2023-02-20T10:27:57.690Z,3.50
2023-02-20T10:30:36.307Z,3.67
2023-02-20T10:33:29.994Z,3.35
2023-02-20T10:36:11.769Z,3.55
2023-02-20T10:38:53.582Z,3.47
2023-02-20T10:41:33.487Z,3.45
2023-02-20T10:44:15.513Z,3.63
2023-02-20T10:47:00.452Z,3.50
2023-02-20T10:49:43.568Z,3.45
2023-02-20T10:52:33.064Z,3.45
2023-02-20T10:55:15.950Z,3.60
2023-02-20T10:57:56.038Z,3.20
2023-02-20T11:00:37.277Z,3.70
2023-02-20T11:03:16.928Z,3.47
2023-02-20T11:05:57.767Z,3.55
2023-02-20T11:08:33.094Z,3.38
2023-02-20T11:11:36.549Z,3.78
2023-02-20T11:14:21.666Z,3.50
2023-02-20T11:17:05.083Z,4.07
2023-02-20T11:19:46.635Z,3.60
2023-02-20T11:22:42.351Z,3.55
2023-02-20T11:25:23.525Z,3.50
2023-02-20T11:28:01.323Z,3.65
2023-02-20T11:30:39.718Z,3.60
2023-02-20T11:33:22.338Z,3.50
2023-02-20T11:36:04.260Z,3.67
2023-02-20T11:38:43.017Z,4.80
2023-02-20T11:41:34.411Z,3.60
2023-02-20T11:44:27.288Z,3.97
2023-02-20T11:47:30.467Z,3.95
2023-02-20T11:50:23.519Z,3.80
2023-02-20T11:53:04.175Z,4.00
2023-02-20T11:55:44.380Z,4.70
2023-02-20T11:58:31.831Z,3.97
2023-02-20T12:01:07.216Z,3.92
2023-02-20T12:03:42.598Z,3.85
2023-02-20T12:06:44.172Z,4.50
2023-02-20T12:09:23.579Z,3.78
2023-02-20T12:12:01.630Z,3.75
2023-02-20T12:14:36.951Z,3.92
2023-02-20T12:17:25.045Z,3.22
2023-02-20T12:20:08.207Z,3.95
2023-02-20T12:22:48.664Z,3.55
2023-02-20T12:25:31.084Z,3.63
2023-02-20T12:28:20.257Z,3.60
2023-02-20T12:31:08.658Z,4.15
2023-02-20T12:34:05.182Z,3.63
2023-02-20T12:36:44.276Z,3.58
2023-02-20T12:39:33.113Z,3.72
2023-02-20T12:42:19.811Z,3.85
2023-02-20T12:45:23.988Z,4.50
2023-02-20T12:48:12.712Z,4.10
2023-02-20T12:50:56.632Z,3.92
2023-02-20T12:54:06.463Z,4.15
2023-02-20T12:56:53.741Z,4.05
2023-02-20T12:59:34.846Z,3.28
2023-02-20T13:02:40.977Z,3.92
2023-02-20T13:05:22.976Z,4.20
2023-02-20T13:08:00.110Z,3.92
2023-02-20T13:10:38.415Z,4.15
2023-02-20T13:13:21.848Z,4.50
2023-02-20T13:16:05.644Z,4.03
2023-02-20T13:18:48.346Z,3.97
2023-02-20T13:21:29.777Z,3.90
2023-02-20T13:24:33.509Z,4.45
2023-02-20T13:27:11.910Z,4.38
2023-02-20T13:30:04.212Z,4.85
2023-02-20T13:32:39.600Z,4.22
2023-02-20T13:35:50.540Z,3.97
2023-02-20T13:38:27.656Z,4.05
2023-02-20T13:41:14.052Z,4.32
2023-02-20T13:43:49.210Z,4.15
2023-02-20T13:46:27.876Z,4.13
2023-02-20T13:49:03.326Z,3.85
2023-02-20T13:51:42.118Z,3.83
2023-02-20T13:54:33.406Z,3.63
2023-02-20T13:57:22.586Z,4.25
2023-02-20T13:59:59.223Z,3.90
2023-02-20T14:02:34.750Z,3.60
2023-02-20T14:05:12.542Z,3.78
2023-02-20T14:07:52.349Z,3.97
2023-02-20T14:10:32.680Z,3.58
2023-02-20T14:13:11.268Z,3.60
2023-02-20T14:15:58.352Z,3.80
2023-02-20T14:18:35.267Z,4.43
2023-02-20T14:21:19.803Z,3.90
2023-02-20T14:23:59.455Z,3.85
2023-02-20T14:26:36.802Z,4.13
2023-02-20T14:29:26.907Z,4.57
2023-02-20T14:32:03.745Z,3.88
2023-02-20T14:34:46.816Z,3.65
2023-02-20T14:37:27.214Z,4.32
2023-02-20T14:40:11.491Z,4.60
2023-02-20T14:42:49.720Z,3.90
2023-02-20T14:45:29.014Z,4.25
2023-02-20T14:48:06.712Z,3.67
2023-02-20T14:50:43.070Z,4.00
2023-02-20T14:53:20.111Z,4.22
2023-02-20T14:55:57.700Z,3.60
2023-02-20T14:58:40.504Z,3.90
2023-02-20T15:01:40.661Z,4.47
2023-02-20T15:04:20.066Z,4.32
2023-02-20T15:06:57.734Z,4.07
2023-02-20T15:09:42.224Z,4.15
2023-02-20T15:12:29.706Z,3.80
2023-02-20T15:15:07.919Z,4.30
2023-02-20T15:17:43.846Z,4.40
2023-02-20T15:20:39.096Z,4.28
2023-02-20T15:23:16.572Z,4.63
2023-02-20T15:25:52.370Z,4.35
2023-02-20T15:28:34.888Z,3.70
2023-02-20T15:31:25.022Z,3.65
2023-02-20T15:34:01.546Z,3.88
2023-02-20T15:36:37.127Z,4.00
2023-02-20T15:39:18.321Z,4.07
2023-02-20T15:44:32.996Z,4.30
2023-02-20T15:47:09.524Z,4.53
2023-02-20T15:49:44.741Z,4.20
2023-02-20T15:52:23.205Z,4.22
2023-02-20T15:55:00.521Z,4.13
2023-02-20T15:57:36.210Z,3.97
2023-02-20T16:00:22.454Z,4.00
2023-02-20T16:03:00.558Z,4.38
2023-02-20T16:05:36.296Z,4.18
2023-02-20T16:08:11.955Z,3.97
2023-02-20T16:10:47.195Z,4.38
2023-02-20T16:13:29.924Z,4.80
2023-02-20T16:16:24.315Z,3.88
2023-02-20T16:19:00.878Z,4.60
2023-02-20T16:21:36.103Z,4.68
2023-02-20T16:24:12.241Z,4.32
2023-02-20T16:26:51.154Z,3.92
2023-02-20T16:29:31.418Z,4.10
2023-02-20T16:32:25.324Z,4.25
2023-02-20T16:35:02.110Z,3.65
2023-02-20T16:37:37.746Z,3.80
2023-02-20T16:40:14.049Z,3.72
2023-02-20T16:42:50.747Z,3.88
2023-02-20T16:45:28.784Z,4.25
2023-02-20T16:48:06.959Z,3.35
2023-02-20T16:50:42.662Z,3.60
2023-02-20T16:53:18.693Z,3.85
2023-02-20T16:55:54.094Z,3.60
2023-02-20T16:58:29.988Z,4.10
2023-02-20T17:01:05.442Z,3.72
2023-02-20T17:03:43.030Z,3.75
2023-02-20T17:06:22.036Z,3.97
2023-02-20T17:08:57.832Z,3.17
2023-02-20T17:11:33.010Z,3.70
2023-02-20T17:14:08.300Z,3.75
2023-02-20T17:16:45.650Z,3.38
2023-02-20T17:19:24.579Z,3.28
2023-02-20T17:21:59.860Z,3.88
2023-02-20T17:24:34.960Z,3.10
2023-02-20T17:27:10.556Z,3.17
2023-02-20T17:29:47.728Z,3.53
2023-02-20T17:32:23.236Z,3.20
2023-02-20T17:35:00.838Z,3.00
2023-02-20T17:37:36.032Z,3.50
2023-02-20T17:40:13.103Z,3.20
2023-02-20T17:42:48.516Z,3.38
2023-02-20T17:45:24.108Z,3.13
2023-02-20T17:47:59.312Z,2.97
2023-02-20T17:50:37.739Z,2.97
2023-02-20T17:53:13.100Z,3.03
2023-02-20T17:55:48.285Z,3.00
2023-02-20T17:58:23.711Z,3.15
2023-02-20T18:00:59.852Z,3.25
2023-02-20T18:03:35.213Z,2.88
2023-02-20T18:06:13.632Z,2.83
2023-02-20T18:08:51.558Z,3.03
2023-02-20T18:11:28.879Z,3.03
2023-02-20T18:14:04.111Z,3.05
2023-02-20T18:16:41.218Z,2.78
2023-02-20T18:19:19.281Z,2.97
2023-02-20T18:21:57.437Z,2.80
2023-02-20T18:24:33.490Z,3.00
2023-02-20T18:27:08.816Z,3.00
2023-02-20T18:29:44.374Z,3.03
2023-02-20T18:32:20.486Z,3.33
2023-02-20T18:34:55.889Z,2.83
2023-02-20T18:37:33.643Z,2.83
2023-02-20T18:40:10.098Z,2.83
2023-02-20T18:42:46.071Z,2.78
2023-02-20T18:45:23.306Z,2.85
2023-02-20T18:47:59.088Z,2.53
2023-02-20T18:50:34.168Z,3.03
2023-02-20T18:53:15.231Z,2.53
2023-02-20T18:55:50.367Z,2.80
2023-02-20T18:58:29.216Z,3.00
2023-02-20T19:01:04.482Z,2.80
2023-02-20T19:03:40.663Z,3.10
2023-02-20T19:06:16.005Z,2.72
2023-02-20T19:08:56.764Z,3.10
2023-02-20T19:11:32.287Z,3.30
2023-02-20T19:14:08.324Z,2.63
2023-02-20T19:16:43.690Z,2.40
2023-02-20T19:19:24.167Z,3.03
2023-02-20T19:22:01.296Z,2.95
2023-02-20T19:24:44.018Z,2.80
2023-02-20T19:27:19.467Z,2.83
2023-02-20T19:29:54.994Z,3.25
2023-02-20T19:32:30.277Z,2.92
2023-02-20T19:35:06.412Z,2.80
2023-02-20T19:37:42.565Z,2.83
2023-02-20T19:40:21.550Z,2.67
2023-02-20T19:42:57.028Z,3.63
2023-02-20T19:45:33.054Z,3.70
2023-02-20T19:48:08.430Z,3.90
2023-02-20T19:50:43.717Z,4.10
2023-02-20T19:53:20.142Z,3.60
2023-02-20T19:55:58.801Z,3.35
2023-02-20T19:58:34.099Z,3.38
2023-02-20T20:01:09.444Z,3.28
2023-02-20T20:03:44.683Z,3.65
2023-02-20T20:06:22.527Z,3.35
2023-02-20T20:09:11.322Z,3.13
2023-02-20T20:11:51.596Z,2.95
2023-02-20T20:14:27.182Z,2.88
2023-02-20T20:17:04.407Z,2.72
2023-02-20T20:19:44.386Z,2.80
2023-02-20T20:22:22.105Z,2.40
2023-02-20T20:24:59.216Z,3.08
2023-02-20T20:27:42.765Z,3.80
2023-02-20T20:30:23.707Z,3.05
2023-02-20T20:32:59.102Z,2.90
2023-02-20T20:35:35.283Z,2.55
2023-02-20T20:38:11.953Z,2.83
2023-02-20T20:40:47.404Z,2.65
2023-02-20T20:43:25.195Z,2.60
2023-02-20T20:46:00.739Z,2.60
2023-02-20T20:48:36.400Z,2.13
2023-02-20T20:51:12.785Z,2.47
2023-02-20T20:53:48.677Z,2.10
2023-02-20T20:56:24.738Z,2.22
2023-02-20T20:59:02.913Z,2.50
2023-02-20T21:01:40.848Z,2.58
2023-02-20T21:04:16.690Z,2.42
2023-02-20T21:06:52.173Z,2.42
2023-02-20T21:09:27.994Z,2.25
2023-02-20T21:12:03.218Z,2.47
2023-02-20T21:14:41.462Z,2.15
2023-02-20T21:17:17.705Z,2.30
2023-02-20T21:19:53.580Z,2.85
2023-02-20T21:22:29.474Z,2.35
2023-02-20T21:25:05.095Z,2.28
2023-02-20T21:27:40.794Z,2.22
2023-02-20T21:30:19.465Z,2.03
2023-02-20T21:32:55.402Z,2.50
2023-02-20T21:35:30.553Z,2.15
2023-02-20T21:38:06.068Z,2.22
2023-02-20T21:40:41.906Z,1.98
2023-02-20T21:43:33.064Z,2.30
2023-02-20T21:46:10.768Z,2.15
2023-02-20T21:48:46.263Z,2.30
2023-02-20T21:51:25.580Z,2.00
2023-02-20T21:54:00.787Z,1.85
2023-02-20T21:56:35.851Z,2.20
2023-02-20T21:59:09.028Z,2.60
2023-02-20T22:01:45.520Z,2.35
2023-02-20T22:04:18.557Z,2.30
2023-02-20T22:07:10.406Z,2.13
2023-02-20T22:10:02.221Z,1.77
2023-02-20T22:12:54.663Z,2.17
2023-02-20T22:15:45.890Z,1.90
2023-02-20T22:18:39.243Z,2.03
2023-02-20T22:21:30.661Z,2.30
2023-02-20T22:24:30.407Z,2.10
2023-02-20T22:27:29.826Z,2.30
2023-02-20T22:30:20.809Z,2.30
2023-02-20T22:33:14.947Z,2.30
2023-02-20T22:36:08.754Z,2.45
2023-02-20T22:39:00.684Z,2.20
2023-02-20T22:41:51.956Z,2.17
2023-02-20T22:44:46.518Z,1.95
2023-02-20T22:47:38.639Z,2.00
2023-02-20T22:50:30.076Z,2.00
2023-02-20T22:53:23.066Z,2.10
2023-02-20T22:56:14.300Z,1.80
2023-02-20T22:59:06.213Z,2.03
2023-02-20T23:01:58.954Z,1.92
2023-02-20T23:04:51.337Z,1.98
2023-02-20T23:07:44.806Z,1.92
2023-02-20T23:10:42.200Z,2.00
2023-02-20T23:13:39.446Z,2.00
2023-02-20T23:16:32.618Z,1.90
2023-02-20T23:19:27.457Z,1.70
2023-02-20T23:22:22.328Z,1.50
2023-02-20T23:25:14.009Z,1.63
2023-02-20T23:28:07.613Z,1.60
2023-02-20T23:31:02.723Z,1.70
2023-02-20T23:33:55.900Z,1.60
2023-02-20T23:36:48.213Z,1.60
2023-02-20T23:39:41.139Z,1.92
2023-02-20T23:42:33.716Z,1.50
2023-02-20T23:45:27.457Z,1.90
2023-02-20T23:48:23.285Z,1.80
2023-02-20T23:51:17.094Z,1.88
2023-02-20T23:54:10.376Z,1.70
2023-02-20T23:57:02.938Z,1.63
2023-02-20T23:59:53.426Z,2.10
